createdAt,value
2022-10-04T00:01:12.195Z,85.07
2022-10-04T00:03:48.294Z,85.09
2022-10-04T00:06:19.252Z,85.25
2022-10-04T00:09:02.128Z,84.50
2022-10-04T00:11:32.068Z,84.74
2022-10-04T00:14:14.139Z,84.73
2022-10-04T00:16:41.440Z,84.50
2022-10-04T00:19:20.355Z,84.32
2022-10-04T00:21:56.341Z,84.52
2022-10-04T00:24:24.245Z,84.59
2022-10-04T00:26:50.973Z,84.96
2022-10-04T00:29:26.880Z,84.95
2022-10-04T00:32:12.000Z,84.77
2022-10-04T00:34:49.533Z,85.46
2022-10-04T00:37:18.715Z,85.12
2022-10-04T00:40:15.551Z,84.73
2022-10-04T00:42:59.275Z,84.88
2022-10-04T00:45:31.470Z,85.34
2022-10-04T00:48:10.642Z,85.18
2022-10-04T00:51:10.699Z,84.99
2022-10-04T00:53:42.480Z,85.56
2022-10-04T00:56:13.922Z,85.36
2022-10-04T00:59:06.096Z,85.16
2022-10-04T01:01:35.984Z,85.65
2022-10-04T01:04:03.762Z,85.49
2022-10-04T01:06:31.305Z,85.74
2022-10-04T01:09:05.467Z,85.76
2022-10-04T01:11:38.592Z,85.55
2022-10-04T01:14:19.649Z,85.50
2022-10-04T01:16:46.518Z,85.76
2022-10-04T01:19:22.503Z,85.37
2022-10-04T01:22:07.677Z,85.05
2022-10-04T01:24:40.071Z,84.37
2022-10-04T01:27:40.033Z,84.65
2022-10-04T01:30:10.173Z,84.43
2022-10-04T01:32:38.545Z,84.57
2022-10-04T01:35:07.839Z,84.19
2022-10-04T01:37:34.787Z,84.05
2022-10-04T01:40:02.010Z,83.66
2022-10-04T01:42:51.328Z,83.70
2022-10-04T01:45:48.216Z,83.82
2022-10-04T01:48:18.324Z,83.88
2022-10-04T01:51:00.321Z,84.15
2022-10-04T01:53:27.937Z,83.65
2022-10-04T01:56:09.149Z,83.72
2022-10-04T01:58:47.595Z,83.46
2022-10-04T02:01:43.575Z,83.57
2022-10-04T02:04:21.874Z,83.68
2022-10-04T02:06:54.271Z,83.56
2022-10-04T02:09:25.807Z,83.50
2022-10-04T02:11:54.132Z,83.45
2022-10-04T02:14:23.956Z,83.46
2022-10-04T02:16:53.963Z,83.21
2022-10-04T02:19:24.473Z,83.56
2022-10-04T02:21:52.332Z,83.36
2022-10-04T02:24:19.674Z,83.12
2022-10-04T02:26:53.187Z,82.98
2022-10-04T02:29:20.681Z,82.70
2022-10-04T02:32:07.877Z,82.75
2022-10-04T02:34:35.126Z,82.66
2022-10-04T02:37:04.458Z,82.48
2022-10-04T02:39:41.201Z,82.79
2022-10-04T02:42:37.520Z,82.42
2022-10-04T02:45:21.090Z,82.30
2022-10-04T02:47:52.897Z,82.21
2022-10-04T02:50:32.795Z,82.38
2022-10-04T02:53:19.806Z,82.39
2022-10-04T02:55:47.698Z,82.43
2022-10-04T02:58:18.438Z,81.99
2022-10-04T03:00:48.986Z,82.15
2022-10-04T03:03:37.047Z,82.14
2022-10-04T03:06:11.688Z,82.19
2022-10-04T03:08:53.739Z,82.04
2022-10-04T03:11:23.205Z,82.56
2022-10-04T03:13:51.955Z,82.17
2022-10-04T03:16:19.482Z,82.11
2022-10-04T03:18:47.363Z,82.28
2022-10-04T03:21:16.419Z,82.45
2022-10-04T03:23:43.706Z,82.26
2022-10-04T03:26:32.253Z,82.37
2022-10-04T03:28:59.561Z,82.23
2022-10-04T03:31:27.859Z,81.92
2022-10-04T03:33:56.269Z,82.06
2022-10-04T03:36:24.229Z,81.85
2022-10-04T03:38:54.021Z,82.15
2022-10-04T03:41:22.427Z,81.48
2022-10-04T03:43:50.652Z,81.88
2022-10-04T03:46:19.231Z,81.90
2022-10-04T03:48:50.280Z,81.78
2022-10-04T03:51:19.964Z,81.95
2022-10-04T03:53:49.098Z,81.57
2022-10-04T03:56:26.465Z,81.37
2022-10-04T03:58:53.977Z,81.49
2022-10-04T04:01:31.241Z,81.29
2022-10-04T04:04:20.543Z,81.18
2022-10-04T04:06:50.554Z,81.00
2022-10-04T04:09:37.159Z,81.16
2022-10-04T04:12:09.307Z,81.19
2022-10-04T04:14:37.103Z,80.93
2022-10-04T04:17:39.333Z,80.58
2022-10-04T04:20:13.681Z,81.08
2022-10-04T04:22:43.534Z,81.29
2022-10-04T04:25:14.999Z,81.19
2022-10-04T04:27:42.319Z,81.50
2022-10-04T04:30:12.527Z,81.61
2022-10-04T04:32:54.279Z,81.79
2022-10-04T04:35:25.374Z,81.70
2022-10-04T04:38:17.393Z,81.86
2022-10-04T04:40:44.390Z,81.98
2022-10-04T04:43:14.924Z,82.37
2022-10-04T04:45:41.803Z,82.14
2022-10-04T04:48:08.927Z,82.21
2022-10-04T04:50:37.970Z,82.25
2022-10-04T04:53:37.258Z,82.64
2022-10-04T04:56:10.384Z,82.55
2022-10-04T04:58:43.656Z,82.65
2022-10-04T05:01:56.941Z,82.94
2022-10-04T05:04:24.063Z,83.11
2022-10-04T05:07:06.396Z,83.21
2022-10-04T05:09:35.304Z,83.33
2022-10-04T05:12:18.262Z,83.72
2022-10-04T05:14:52.539Z,83.90
2022-10-04T05:17:23.127Z,83.81
2022-10-04T05:19:50.834Z,84.21
2022-10-04T05:22:21.229Z,83.70
2022-10-04T05:24:51.930Z,83.89
2022-10-04T05:27:31.032Z,83.88
2022-10-04T05:30:30.563Z,84.01
2022-10-04T05:33:02.373Z,83.90
2022-10-04T05:35:30.257Z,84.11
2022-10-04T05:38:09.139Z,84.01
2022-10-04T05:40:55.442Z,84.56
2022-10-04T05:43:29.088Z,84.61
2022-10-04T05:46:17.204Z,84.22
2022-10-04T05:48:45.696Z,84.34
2022-10-04T05:51:23.373Z,83.88
2022-10-04T05:53:50.381Z,84.03
2022-10-04T05:56:41.686Z,84.17
2022-10-04T05:59:19.428Z,84.27
2022-10-04T06:02:00.698Z,83.22
2022-10-04T06:04:42.809Z,83.63
2022-10-04T06:07:22.027Z,83.34
2022-10-04T06:09:55.188Z,83.87
2022-10-04T06:12:36.937Z,83.60
2022-10-04T06:15:43.303Z,83.94
2022-10-04T06:18:23.176Z,83.95
2022-10-04T06:20:56.189Z,84.07
2022-10-04T06:23:23.626Z,84.20
2022-10-04T06:25:50.550Z,84.25
2022-10-04T06:28:32.105Z,84.27
2022-10-04T06:31:20.603Z,84.24
2022-10-04T06:33:47.327Z,84.05
2022-10-04T06:36:20.083Z,84.42
2022-10-04T06:39:10.195Z,84.77
2022-10-04T06:41:48.815Z,84.63
2022-10-04T06:44:44.300Z,84.82
2022-10-04T06:47:21.662Z,85.01
2022-10-04T06:50:00.391Z,85.17
2022-10-04T06:52:54.840Z,84.81
2022-10-04T06:55:32.068Z,84.84
2022-10-04T06:58:37.340Z,85.35
2022-10-04T07:01:20.232Z,85.09
2022-10-04T07:03:55.986Z,84.59
2022-10-04T07:07:25.020Z,85.27
2022-10-04T07:09:56.336Z,85.81
2022-10-04T07:12:26.685Z,85.55
2022-10-04T07:14:56.265Z,85.71
2022-10-04T07:17:40.522Z,85.82
2022-10-04T07:20:18.434Z,85.85
2022-10-04T07:22:51.283Z,86.00
2022-10-04T07:25:24.774Z,85.75
2022-10-04T07:28:19.316Z,85.97
2022-10-04T07:30:51.154Z,86.02
2022-10-04T07:33:22.190Z,86.17
2022-10-04T07:35:50.674Z,86.20
2022-10-04T07:38:32.427Z,86.77
2022-10-04T07:41:03.816Z,87.17
2022-10-04T07:43:33.216Z,86.50
2022-10-04T07:46:41.690Z,86.33
2022-10-04T07:49:27.236Z,86.26
2022-10-04T07:52:03.278Z,86.35
2022-10-04T07:55:04.612Z,86.70
2022-10-04T07:57:31.309Z,86.60
2022-10-04T08:00:08.884Z,86.81
2022-10-04T08:03:06.753Z,86.77
2022-10-04T08:05:37.458Z,86.44
2022-10-04T08:08:22.303Z,86.79
2022-10-04T08:11:15.003Z,86.52
2022-10-04T08:14:06.019Z,86.30
2022-10-04T08:17:15.813Z,86.52
2022-10-04T08:20:03.695Z,86.48
2022-10-04T08:22:30.406Z,86.75
2022-10-04T08:25:06.522Z,86.35
2022-10-04T08:28:08.165Z,86.43
2022-10-04T08:30:52.897Z,87.03
2022-10-04T08:33:44.969Z,87.28
2022-10-04T08:36:17.955Z,87.63
2022-10-04T08:38:50.563Z,87.98
2022-10-04T08:41:32.486Z,87.74
2022-10-04T08:44:23.242Z,87.81
2022-10-04T08:47:09.113Z,87.37
2022-10-04T08:50:00.776Z,87.57
2022-10-04T08:52:39.583Z,87.45
2022-10-04T08:55:23.559Z,87.55
2022-10-04T08:58:23.573Z,87.97
2022-10-04T09:00:59.300Z,88.24
2022-10-04T09:04:03.754Z,88.11
2022-10-04T09:06:30.674Z,88.92
2022-10-04T09:09:03.396Z,88.64
2022-10-04T09:12:05.120Z,88.32
2022-10-04T09:14:35.070Z,88.74
2022-10-04T09:17:51.370Z,88.66
2022-10-04T09:20:38.757Z,89.08
2022-10-04T09:23:08.816Z,88.98
2022-10-04T09:25:41.928Z,88.68
2022-10-04T09:28:30.208Z,88.94
2022-10-04T09:31:25.395Z,88.47
2022-10-04T09:33:52.194Z,88.64
2022-10-04T09:36:27.940Z,88.02
2022-10-04T09:39:29.862Z,88.74
2022-10-04T09:42:15.306Z,88.96
2022-10-04T09:45:21.571Z,88.69
2022-10-04T09:48:07.895Z,88.14
2022-10-04T09:51:08.041Z,88.00
2022-10-04T09:53:39.162Z,88.11
2022-10-04T09:56:33.635Z,87.52
2022-10-04T09:59:08.913Z,87.78
2022-10-04T10:01:41.288Z,87.97
2022-10-04T10:04:42.194Z,88.27
2022-10-04T10:08:02.809Z,87.74
2022-10-04T10:11:03.420Z,87.92
2022-10-04T10:13:58.051Z,89.17
2022-10-04T10:16:44.020Z,89.10
2022-10-04T10:19:28.351Z,89.34
2022-10-04T10:22:17.016Z,90.36
2022-10-04T10:25:01.741Z,89.29
2022-10-04T10:27:52.865Z,89.58
2022-10-04T10:30:31.726Z,89.75
2022-10-04T10:33:04.110Z,90.10
2022-10-04T10:35:43.211Z,89.53
2022-10-04T10:38:36.474Z,90.48
2022-10-04T10:41:32.290Z,89.63
2022-10-04T10:44:08.116Z,90.68
2022-10-04T10:46:46.779Z,90.47
2022-10-04T10:49:39.042Z,90.66
2022-10-04T10:52:25.510Z,90.60
2022-10-04T10:54:59.895Z,90.61
2022-10-04T10:57:34.246Z,90.67
2022-10-04T11:00:21.777Z,90.30
2022-10-04T11:03:22.730Z,91.69
2022-10-04T11:05:51.334Z,91.28
2022-10-04T11:08:36.823Z,90.65
2022-10-04T11:11:27.989Z,90.58
2022-10-04T11:14:17.712Z,91.19
2022-10-04T11:17:04.007Z,91.09
2022-10-04T11:20:09.684Z,90.70
2022-10-04T11:23:02.074Z,90.36
2022-10-04T11:25:55.027Z,90.24
2022-10-04T11:28:42.405Z,89.44
2022-10-04T11:31:12.267Z,88.90
2022-10-04T11:33:57.390Z,88.67
2022-10-04T11:36:45.780Z,88.59
2022-10-04T11:39:26.157Z,88.92
2022-10-04T11:42:18.278Z,88.60
2022-10-04T11:45:03.474Z,88.04
2022-10-04T11:47:48.320Z,87.94
2022-10-04T11:50:25.734Z,87.27
2022-10-04T11:53:27.731Z,87.86
2022-10-04T11:56:20.811Z,87.02
2022-10-04T11:59:06.304Z,86.59
2022-10-04T12:01:51.240Z,87.10
2022-10-04T12:04:42.793Z,85.65
2022-10-04T12:07:27.644Z,86.03
2022-10-04T12:10:24.771Z,86.01
2022-10-04T12:12:57.556Z,85.49
2022-10-04T12:15:55.768Z,85.70
2022-10-04T12:18:48.520Z,85.67
2022-10-04T12:21:24.053Z,86.20
2022-10-04T12:24:23.125Z,86.16
2022-10-04T12:26:59.721Z,85.94
2022-10-04T12:30:14.213Z,85.48
2022-10-04T12:33:03.465Z,86.44
2022-10-04T12:35:57.341Z,86.19
2022-10-04T12:38:32.878Z,85.74
2022-10-04T12:41:24.116Z,85.25
2022-10-04T12:44:11.077Z,85.13
2022-10-04T12:47:01.563Z,85.14
2022-10-04T12:50:05.908Z,85.15
2022-10-04T12:52:59.569Z,85.63
2022-10-04T12:56:08.358Z,85.31
2022-10-04T12:58:53.717Z,85.18
2022-10-04T13:01:26.323Z,85.93
2022-10-04T13:03:53.110Z,86.80
2022-10-04T13:06:22.852Z,86.26
2022-10-04T13:09:08.722Z,87.61
2022-10-04T13:11:53.640Z,87.33
2022-10-04T13:14:36.058Z,86.98
2022-10-04T13:17:35.398Z,86.88
2022-10-04T13:20:21.508Z,86.82
2022-10-04T13:22:57.741Z,86.52
2022-10-04T13:26:01.302Z,85.37
2022-10-04T13:28:52.125Z,84.70
2022-10-04T13:31:34.619Z,85.36
2022-10-04T13:34:10.483Z,84.48
2022-10-04T13:37:14.468Z,85.67
2022-10-04T13:40:01.001Z,85.46
2022-10-04T13:42:54.563Z,85.08
2022-10-04T13:45:40.632Z,84.95
2022-10-04T13:48:26.865Z,85.03
2022-10-04T13:51:20.056Z,83.35
2022-10-04T13:54:51.879Z,82.56
2022-10-04T13:57:31.144Z,80.97
2022-10-04T14:00:17.706Z,81.49
2022-10-04T14:03:04.487Z,79.73
2022-10-04T14:05:43.531Z,79.49
2022-10-04T14:08:25.286Z,77.88
2022-10-04T14:10:56.954Z,77.91
2022-10-04T14:13:53.871Z,74.32
2022-10-04T14:16:39.396Z,76.52
2022-10-04T14:19:27.875Z,78.48
2022-10-04T14:22:22.051Z,77.84
2022-10-04T14:25:09.379Z,76.58
2022-10-04T14:28:17.714Z,77.39
2022-10-04T14:31:08.091Z,77.23
2022-10-04T14:33:43.031Z,77.92
2022-10-04T14:36:16.152Z,77.42
2022-10-04T14:38:46.233Z,76.13
2022-10-04T14:41:37.168Z,77.22
2022-10-04T14:44:25.926Z,79.34
2022-10-04T14:46:55.585Z,80.96
2022-10-04T14:49:37.802Z,81.34
2022-10-04T14:52:33.223Z,82.02
2022-10-04T14:55:29.278Z,80.33
2022-10-04T14:58:17.257Z,79.91
2022-10-04T15:00:59.144Z,79.91
2022-10-04T15:03:33.163Z,80.65
2022-10-04T15:06:09.603Z,80.78
2022-10-04T15:08:39.294Z,80.15
2022-10-04T15:11:08.648Z,80.89
2022-10-04T15:13:35.374Z,81.48
2022-10-04T15:16:14.474Z,79.91
2022-10-04T15:18:52.371Z,80.64
2022-10-04T15:21:47.055Z,81.38
2022-10-04T15:24:13.821Z,81.09
2022-10-04T15:27:09.510Z,81.82
2022-10-04T15:29:57.945Z,80.69
2022-10-04T15:32:30.715Z,80.44
2022-10-04T15:35:11.952Z,80.38
2022-10-04T15:38:15.996Z,79.66
2022-10-04T15:41:07.325Z,79.94
2022-10-04T15:43:42.966Z,80.58
2022-10-04T15:46:47.579Z,81.49
2022-10-04T15:49:56.612Z,79.45
2022-10-04T15:52:44.924Z,80.84
2022-10-04T15:55:20.198Z,81.01
2022-10-04T15:58:02.969Z,81.39
2022-10-04T16:00:43.840Z,78.86
2022-10-04T16:03:27.067Z,79.38
2022-10-04T16:06:20.873Z,79.27
2022-10-04T16:09:32.057Z,81.08
2022-10-04T16:12:19.154Z,82.41
2022-10-04T16:15:21.489Z,82.80
2022-10-04T16:18:06.679Z,81.95
2022-10-04T16:20:49.283Z,80.98
2022-10-04T16:23:31.754Z,80.06
2022-10-04T16:26:06.011Z,79.13
2022-10-04T16:29:00.668Z,78.70
2022-10-04T16:31:47.156Z,76.10
2022-10-04T16:34:28.240Z,75.58
2022-10-04T16:37:02.528Z,74.30
2022-10-04T16:39:57.108Z,75.27
2022-10-04T16:42:42.530Z,75.15
2022-10-04T16:45:09.454Z,73.89
2022-10-04T16:47:58.129Z,72.36
2022-10-04T16:50:58.973Z,68.88
2022-10-04T16:53:29.580Z,69.35
2022-10-04T16:55:57.645Z,70.83
2022-10-04T16:58:27.110Z,71.57
2022-10-04T17:01:21.930Z,72.34
2022-10-04T17:04:03.991Z,71.75
2022-10-04T17:07:18.591Z,69.30
2022-10-04T17:10:02.828Z,69.53
2022-10-04T17:12:53.873Z,70.86
2022-10-04T17:15:35.941Z,70.53
2022-10-04T17:18:06.434Z,70.75
2022-10-04T17:21:00.572Z,72.62
2022-10-04T17:23:52.578Z,74.26
2022-10-04T17:26:38.362Z,74.90
2022-10-04T17:29:21.867Z,76.98
2022-10-04T17:31:52.058Z,76.25
2022-10-04T17:34:27.639Z,76.93
2022-10-04T17:36:57.511Z,77.20
2022-10-04T17:39:44.580Z,79.34
2022-10-04T17:42:29.737Z,78.18
2022-10-04T17:45:07.842Z,78.88
2022-10-04T17:48:00.487Z,79.84
2022-10-04T17:50:54.021Z,79.77
2022-10-04T17:53:42.304Z,79.33
2022-10-04T17:56:11.786Z,79.56
2022-10-04T17:58:39.839Z,79.27
2022-10-04T18:01:31.971Z,80.88
2022-10-04T18:04:13.904Z,80.72
2022-10-04T18:06:55.722Z,81.72
2022-10-04T18:09:35.629Z,82.25
2022-10-04T18:12:06.601Z,82.59
2022-10-04T18:14:46.882Z,82.07
2022-10-04T18:17:26.045Z,82.68
2022-10-04T18:20:01.931Z,83.24
2022-10-04T18:22:42.842Z,82.50
2022-10-04T18:25:18.128Z,83.04
2022-10-04T18:28:08.030Z,82.51
2022-10-04T18:30:48.553Z,84.07
2022-10-04T18:33:16.812Z,82.89
2022-10-04T18:36:27.478Z,81.90
2022-10-04T18:39:12.347Z,82.71
2022-10-04T18:41:56.755Z,81.04
2022-10-04T18:44:30.028Z,81.06
2022-10-04T18:46:59.282Z,81.36
2022-10-04T18:49:47.632Z,81.43
2022-10-04T18:52:24.596Z,81.18
2022-10-04T18:55:06.796Z,81.17
2022-10-04T18:58:01.304Z,80.74
2022-10-04T19:00:52.734Z,78.54
2022-10-04T19:03:22.631Z,79.55
2022-10-04T19:06:08.289Z,78.16
2022-10-04T19:09:05.872Z,78.62
2022-10-04T19:11:42.422Z,78.64
2022-10-04T19:14:36.506Z,78.92
2022-10-04T19:17:27.642Z,78.42
2022-10-04T19:20:23.968Z,78.35
2022-10-04T19:23:01.060Z,77.76
2022-10-04T19:25:41.120Z,76.74
2022-10-04T19:28:15.616Z,78.02
2022-10-04T19:31:01.150Z,77.88
2022-10-04T19:33:48.740Z,78.06
2022-10-04T19:36:33.949Z,78.45
2022-10-04T19:39:07.964Z,77.59
2022-10-04T19:41:55.686Z,77.93
2022-10-04T19:44:59.248Z,77.69
2022-10-04T19:47:46.972Z,77.58
2022-10-04T19:50:27.277Z,78.14
2022-10-04T19:53:07.585Z,78.52
2022-10-04T19:55:56.771Z,79.22
2022-10-04T19:58:45.048Z,78.51
2022-10-04T20:01:16.848Z,78.25
2022-10-04T20:03:44.153Z,77.51
2022-10-04T20:06:20.227Z,78.50
2022-10-04T20:08:46.911Z,78.93
2022-10-04T20:11:18.990Z,78.41
2022-10-04T20:13:51.501Z,80.46
2022-10-04T20:16:47.426Z,80.07
2022-10-04T20:19:38.949Z,78.68
2022-10-04T20:22:10.069Z,78.40
2022-10-04T20:24:36.883Z,78.62
2022-10-04T20:27:06.729Z,77.96
2022-10-04T20:29:36.307Z,78.59
2022-10-04T20:32:29.984Z,78.76
2022-10-04T20:34:58.171Z,79.53
2022-10-04T20:38:07.893Z,79.18
2022-10-04T20:40:40.727Z,80.20
2022-10-04T20:43:13.522Z,80.71
2022-10-04T20:45:47.443Z,80.41
2022-10-04T20:48:32.305Z,79.25
2022-10-04T20:51:09.616Z,81.22
2022-10-04T20:53:42.632Z,80.68
2022-10-04T20:56:12.401Z,81.40
2022-10-04T20:58:40.516Z,79.07
2022-10-04T21:01:30.064Z,80.32
2022-10-04T21:04:33.507Z,79.89
2022-10-04T21:07:02.900Z,79.94
2022-10-04T21:09:31.126Z,80.53
2022-10-04T21:11:59.149Z,80.51
2022-10-04T21:14:33.376Z,79.37
2022-10-04T21:17:02.931Z,79.53
2022-10-04T21:19:30.415Z,79.80
2022-10-04T21:22:01.380Z,79.42
2022-10-04T21:24:35.843Z,79.51
2022-10-04T21:27:03.506Z,77.47
2022-10-04T21:29:30.504Z,76.76
2022-10-04T21:31:58.075Z,76.62
2022-10-04T21:34:48.685Z,76.80
2022-10-04T21:37:12.142Z,77.24
2022-10-04T21:39:38.930Z,77.05
2022-10-04T21:42:05.968Z,76.76
2022-10-04T21:44:32.704Z,79.00
2022-10-04T21:46:59.429Z,78.67
2022-10-04T21:49:26.396Z,79.01
2022-10-04T21:51:53.117Z,79.16
2022-10-04T21:54:19.899Z,79.59
2022-10-04T21:56:47.136Z,80.05
2022-10-04T21:59:14.321Z,79.49
2022-10-04T22:01:41.022Z,80.17
2022-10-04T22:04:10.490Z,79.98
2022-10-04T22:06:37.374Z,80.03
2022-10-04T22:09:04.588Z,80.66
2022-10-04T22:11:31.596Z,81.00
2022-10-04T22:13:58.342Z,81.09
2022-10-04T22:16:25.050Z,82.38
2022-10-04T22:18:52.056Z,82.40
2022-10-04T22:21:18.828Z,82.70
2022-10-04T22:23:45.661Z,82.97
2022-10-04T22:26:15.634Z,82.80
2022-10-04T22:28:49.774Z,83.35
2022-10-04T22:31:19.428Z,82.52
2022-10-04T22:33:48.401Z,83.03
2022-10-04T22:36:39.271Z,82.84
2022-10-04T22:39:09.070Z,84.14
2022-10-04T22:41:41.293Z,83.80
2022-10-04T22:44:23.576Z,82.22
2022-10-04T22:46:55.925Z,83.72
2022-10-04T22:49:25.854Z,81.86
2022-10-04T22:51:53.853Z,82.58
2022-10-04T22:54:23.127Z,82.60
2022-10-04T22:56:51.031Z,83.66
2022-10-04T22:59:22.074Z,83.93
2022-10-04T23:01:48.744Z,84.17
2022-10-04T23:04:25.117Z,84.59
2022-10-04T23:06:53.118Z,83.67
2022-10-04T23:09:20.209Z,82.59
2022-10-04T23:11:47.105Z,84.59
2022-10-04T23:14:13.810Z,84.65
2022-10-04T23:16:40.647Z,85.61
2022-10-04T23:19:16.215Z,83.18
2022-10-04T23:21:44.883Z,83.74
2022-10-04T23:24:20.505Z,85.67
2022-10-04T23:26:49.728Z,85.71
2022-10-04T23:29:32.393Z,86.49
2022-10-04T23:31:59.487Z,86.37
2022-10-04T23:34:30.246Z,87.22
2022-10-04T23:36:57.222Z,86.24
2022-10-04T23:39:27.139Z,87.04
2022-10-04T23:41:55.162Z,86.29
2022-10-04T23:44:24.381Z,87.57
2022-10-04T23:46:51.383Z,86.34
2022-10-04T23:49:19.983Z,87.17
2022-10-04T23:51:47.541Z,85.64
2022-10-04T23:54:17.118Z,86.05
2022-10-04T23:56:45.039Z,85.53
2022-10-04T23:59:51.427Z,86.05
